createdAt,value
2023-03-15T00:00:07.906Z,99993.00
2023-03-15T00:02:36.007Z,100031.00
2023-03-15T00:05:04.815Z,100022.00
2023-03-15T00:07:32.965Z,100040.00
2023-03-15T00:10:02.351Z,100069.00
2023-03-15T00:12:30.129Z,100060.00
2023-03-15T00:14:58.068Z,100063.00
2023-03-15T00:17:25.927Z,100069.00
2023-03-15T00:19:53.831Z,100067.00
2023-03-15T00:22:23.343Z,100069.00
2023-03-15T00:24:51.279Z,100085.00
2023-03-15T00:27:20.761Z,100075.00
2023-03-15T00:29:48.693Z,100084.00
2023-03-15T00:32:16.465Z,100077.00
2023-03-15T00:34:49.489Z,100054.00
2023-03-15T00:37:21.809Z,100075.00
2023-03-15T00:39:49.760Z,100082.00
2023-03-15T00:42:17.679Z,100085.00
2023-03-15T00:44:46.945Z,100097.00
2023-03-15T00:47:15.957Z,100091.00
2023-03-15T00:49:43.764Z,100101.00
2023-03-15T00:52:12.517Z,100098.00
2023-03-15T00:54:41.847Z,100110.00
2023-03-15T00:57:09.784Z,100094.00
2023-03-15T00:59:37.729Z,100123.00
2023-03-15T01:02:07.845Z,100122.00
2023-03-15T01:04:36.374Z,100117.00
2023-03-15T01:07:04.458Z,100116.00
2023-03-15T01:09:32.293Z,100114.00
2023-03-15T01:12:00.328Z,100112.00
2023-03-15T01:14:28.144Z,100114.00
2023-03-15T01:16:56.025Z,100122.00
2023-03-15T01:19:25.132Z,100111.00
2023-03-15T01:21:53.254Z,100121.00
2023-03-15T01:24:21.030Z,100122.00
2023-03-15T01:26:48.810Z,100126.00
2023-03-15T01:29:17.884Z,100116.00
2023-03-15T01:31:45.750Z,100121.00
2023-03-15T01:34:13.508Z,100125.00
2023-03-15T01:36:42.595Z,100132.00
2023-03-15T01:39:11.169Z,100128.00
2023-03-15T01:41:39.212Z,100127.00
2023-03-15T01:44:10.026Z,100127.00
2023-03-15T01:46:38.067Z,100094.00
2023-03-15T01:49:10.040Z,100116.00
2023-03-15T01:51:43.918Z,100120.00
2023-03-15T01:54:16.347Z,100131.00
2023-03-15T01:56:49.135Z,100135.00
2023-03-15T01:59:20.852Z,100115.00
2023-03-15T02:01:49.445Z,100148.00
2023-03-15T02:04:24.900Z,100141.00
2023-03-15T02:06:59.182Z,100151.00
2023-03-15T02:09:31.822Z,100145.00
2023-03-15T02:12:00.636Z,100126.00
2023-03-15T02:14:30.018Z,100145.00
2023-03-15T02:16:57.749Z,100131.00
2023-03-15T02:19:39.025Z,100137.00
2023-03-15T02:22:17.284Z,100148.00
2023-03-15T02:24:56.373Z,100134.00
2023-03-15T02:27:29.885Z,100148.00
2023-03-15T02:29:58.321Z,100151.00
2023-03-15T02:32:26.206Z,100151.00
2023-03-15T02:34:54.500Z,100141.00
2023-03-15T02:37:22.474Z,100105.00
2023-03-15T02:39:50.204Z,100140.00
2023-03-15T02:42:19.330Z,100166.00
2023-03-15T02:44:52.270Z,100161.00
2023-03-15T02:47:23.778Z,100160.00
2023-03-15T02:49:53.857Z,100165.00
2023-03-15T02:52:22.398Z,100164.00
2023-03-15T02:54:50.267Z,100160.00
2023-03-15T02:57:19.679Z,100163.00
2023-03-15T02:59:50.890Z,100159.00
2023-03-15T03:02:19.782Z,100176.00
2023-03-15T03:04:47.639Z,100161.00
2023-03-15T03:07:15.421Z,100183.00
2023-03-15T03:09:43.129Z,100187.00
2023-03-15T03:12:11.271Z,100204.00
2023-03-15T03:14:39.007Z,100191.00
2023-03-15T03:17:08.439Z,100171.00
2023-03-15T03:19:36.168Z,100181.00
2023-03-15T03:22:04.126Z,100210.00
2023-03-15T03:24:32.346Z,100206.00
2023-03-15T03:27:00.148Z,100208.00
2023-03-15T03:29:28.327Z,100225.00
2023-03-15T03:31:56.253Z,100219.00
2023-03-15T03:34:25.362Z,100238.00
2023-03-15T03:36:53.440Z,100235.00
2023-03-15T03:39:21.189Z,100236.00
2023-03-15T03:41:49.122Z,100227.00
2023-03-15T03:44:16.943Z,100239.00
2023-03-15T03:46:44.880Z,100243.00
2023-03-15T03:49:13.128Z,100257.00
2023-03-15T03:51:42.287Z,100238.00
2023-03-15T03:54:10.029Z,100244.00
2023-03-15T03:56:37.917Z,100242.00
2023-03-15T03:59:05.701Z,100246.00
2023-03-15T04:01:33.628Z,100247.00
2023-03-15T04:04:01.313Z,100260.00
2023-03-15T04:06:29.101Z,100269.00
2023-03-15T04:08:58.428Z,100273.00
2023-03-15T04:11:27.052Z,100291.00
2023-03-15T04:13:54.883Z,100289.00
2023-03-15T04:16:24.727Z,100291.00
2023-03-15T04:18:56.503Z,100303.00
2023-03-15T04:21:24.365Z,100295.00
2023-03-15T04:23:52.195Z,100302.00
2023-03-15T04:26:21.369Z,100306.00
2023-03-15T04:28:49.304Z,100300.00
2023-03-15T04:31:17.107Z,100310.00
2023-03-15T04:33:44.891Z,100324.00
2023-03-15T04:36:19.898Z,100305.00
2023-03-15T04:38:47.725Z,100311.00
2023-03-15T04:41:15.895Z,100321.00
2023-03-15T04:43:46.062Z,100330.00
2023-03-15T04:46:13.950Z,100296.00
2023-03-15T04:48:42.372Z,100293.00
2023-03-15T04:51:10.345Z,100316.00
2023-03-15T04:53:39.128Z,100317.00
2023-03-15T04:56:07.488Z,100337.00
2023-03-15T04:58:35.366Z,100332.00
2023-03-15T05:01:04.949Z,100318.00
2023-03-15T05:03:32.862Z,100312.00
2023-03-15T05:06:08.048Z,100346.00
2023-03-15T05:08:37.250Z,100322.00
2023-03-15T05:11:05.325Z,100374.00
2023-03-15T05:13:33.468Z,100347.00
2023-03-15T05:16:01.489Z,100373.00
2023-03-15T05:18:30.990Z,100367.00
2023-03-15T05:20:58.946Z,100357.00
2023-03-15T05:23:27.293Z,100361.00
2023-03-15T05:25:56.706Z,100357.00
2023-03-15T05:28:25.894Z,100392.00
2023-03-15T05:30:54.444Z,100343.00
2023-03-15T05:33:22.991Z,100389.00
2023-03-15T05:35:56.055Z,100413.00
2023-03-15T05:38:26.588Z,100386.00
2023-03-15T05:40:54.765Z,100397.00
2023-03-15T05:43:22.753Z,100415.00
2023-03-15T05:45:50.792Z,100417.00
2023-03-15T05:48:18.842Z,100415.00
2023-03-15T05:50:46.801Z,100417.00
2023-03-15T05:53:16.734Z,100424.00
2023-03-15T05:55:44.659Z,100411.00
2023-03-15T05:58:12.745Z,100431.00
2023-03-15T06:00:41.235Z,100445.00
2023-03-15T06:03:09.473Z,100405.00
2023-03-15T06:05:37.362Z,100430.00
2023-03-15T06:08:05.688Z,100449.00
2023-03-15T06:10:35.477Z,100465.00
2023-03-15T06:13:03.374Z,100483.00
2023-03-15T06:15:31.118Z,100477.00
2023-03-15T06:17:58.827Z,100493.00
2023-03-15T06:20:26.706Z,100484.00
2023-03-15T06:22:54.653Z,100487.00
2023-03-15T06:25:22.480Z,100501.00
2023-03-15T06:27:51.967Z,100480.00
2023-03-15T06:30:20.501Z,100496.00
2023-03-15T06:32:48.309Z,100494.00
2023-03-15T06:35:16.328Z,100503.00
2023-03-15T06:37:44.141Z,100501.00
2023-03-15T06:40:13.908Z,100470.00
2023-03-15T06:42:42.735Z,100518.00
2023-03-15T06:45:13.219Z,100514.00
2023-03-15T06:47:41.073Z,100514.00
2023-03-15T06:50:10.157Z,100507.00
2023-03-15T06:52:38.743Z,100537.00
2023-03-15T06:55:07.947Z,100549.00
2023-03-15T06:57:35.772Z,100544.00
2023-03-15T07:00:07.137Z,100565.00
2023-03-15T07:02:37.587Z,100559.00
2023-03-15T07:05:05.955Z,100555.00
2023-03-15T07:07:33.902Z,100566.00
2023-03-15T07:10:01.731Z,100564.00
2023-03-15T07:12:29.581Z,100565.00
2023-03-15T07:14:57.514Z,100569.00
2023-03-15T07:17:25.956Z,100589.00
2023-03-15T07:19:56.825Z,100576.00
2023-03-15T07:22:25.281Z,100578.00
2023-03-15T07:24:53.425Z,100583.00
2023-03-15T07:27:21.223Z,100578.00
2023-03-15T07:29:49.979Z,100593.00
2023-03-15T07:32:18.076Z,100603.00
2023-03-15T07:34:46.142Z,100613.00
2023-03-15T07:37:15.921Z,100610.00
2023-03-15T07:39:44.053Z,100624.00
2023-03-15T07:42:12.182Z,100592.00
2023-03-15T07:44:40.007Z,100600.00
2023-03-15T07:47:08.358Z,100619.00
2023-03-15T07:49:36.149Z,100611.00
2023-03-15T07:52:04.439Z,100630.00
2023-03-15T07:54:34.347Z,100621.00
2023-03-15T07:57:02.061Z,100628.00
2023-03-15T07:59:29.847Z,100609.00
2023-03-15T08:01:57.707Z,100618.00
2023-03-15T08:04:25.752Z,100621.00
2023-03-15T08:06:53.606Z,100638.00
2023-03-15T08:09:21.385Z,100652.00
2023-03-15T08:11:50.548Z,100641.00
2023-03-15T08:14:18.439Z,100651.00
2023-03-15T08:16:46.397Z,100646.00
2023-03-15T08:19:14.192Z,100653.00
2023-03-15T08:21:45.264Z,100654.00
2023-03-15T08:24:13.215Z,100651.00
2023-03-15T08:26:43.229Z,100652.00
2023-03-15T08:29:12.301Z,100664.00
2023-03-15T08:31:40.514Z,100670.00
2023-03-15T08:34:08.481Z,100666.00
2023-03-15T08:36:36.307Z,100673.00
2023-03-15T08:39:05.514Z,100676.00
2023-03-15T08:41:33.931Z,100691.00
2023-03-15T08:44:02.067Z,100688.00
2023-03-15T08:46:31.977Z,100681.00
2023-03-15T08:48:59.820Z,100688.00
2023-03-15T08:51:28.144Z,100698.00
2023-03-15T08:53:57.007Z,100699.00
2023-03-15T08:56:24.708Z,100708.00
2023-03-15T08:58:52.527Z,100710.00
2023-03-15T09:01:20.267Z,100707.00
2023-03-15T09:03:50.636Z,100722.00
2023-03-15T09:06:18.884Z,100717.00
2023-03-15T09:08:46.645Z,100722.00
2023-03-15T09:11:14.866Z,100726.00
2023-03-15T09:13:42.659Z,100732.00
2023-03-15T09:16:10.455Z,100728.00
2023-03-15T09:18:40.631Z,100732.00
2023-03-15T09:21:09.868Z,100740.00
2023-03-15T09:23:41.044Z,100750.00
2023-03-15T09:26:08.841Z,100750.00
2023-03-15T09:28:36.648Z,100760.00
2023-03-15T09:31:07.398Z,100762.00
2023-03-15T09:33:35.271Z,100769.00
2023-03-15T09:36:04.467Z,100757.00
2023-03-15T09:38:33.681Z,100758.00
2023-03-15T09:41:03.691Z,100729.00
2023-03-15T09:43:56.001Z,100759.00
2023-03-15T09:46:29.878Z,100775.00
2023-03-15T09:49:05.195Z,100770.00
2023-03-15T09:51:40.969Z,100750.00
2023-03-15T09:54:13.864Z,100766.00
2023-03-15T09:56:47.085Z,100761.00
2023-03-15T09:59:17.630Z,100775.00
2023-03-15T10:01:46.521Z,100781.00
2023-03-15T10:04:23.895Z,100773.00
2023-03-15T10:06:56.815Z,100768.00
2023-03-15T10:09:27.990Z,100777.00
2023-03-15T10:12:04.420Z,100774.00
2023-03-15T10:14:48.005Z,100775.00
2023-03-15T10:17:21.022Z,100773.00
2023-03-15T10:19:51.242Z,100775.00
2023-03-15T10:22:26.800Z,100776.00
2023-03-15T10:25:00.522Z,100777.00
2023-03-15T10:27:35.813Z,100779.00
2023-03-15T10:30:10.604Z,100770.00
2023-03-15T10:32:42.035Z,100772.00
2023-03-15T10:35:16.282Z,100773.00
2023-03-15T10:37:44.666Z,100778.00
2023-03-15T10:40:16.952Z,100770.00
2023-03-15T10:42:46.540Z,100786.00
2023-03-15T10:45:24.812Z,100761.00
2023-03-15T10:48:00.361Z,100773.00
2023-03-15T10:50:31.122Z,100760.00
2023-03-15T10:53:00.038Z,100783.00
2023-03-15T10:55:33.880Z,100788.00
2023-03-15T10:58:19.569Z,100807.00
2023-03-15T11:00:51.913Z,100797.00
2023-03-15T11:03:21.283Z,100776.00
2023-03-15T11:05:51.450Z,100784.00
2023-03-15T11:08:21.143Z,100787.00
2023-03-15T11:10:57.539Z,100788.00
2023-03-15T11:13:26.789Z,100774.00
2023-03-15T11:16:03.767Z,100796.00
2023-03-15T11:18:36.139Z,100796.00
2023-03-15T11:21:08.346Z,100804.00
2023-03-15T11:23:38.992Z,100803.00
2023-03-15T11:26:12.301Z,100786.00
2023-03-15T11:28:45.791Z,100798.00
2023-03-15T11:31:13.981Z,100794.00
2023-03-15T11:33:48.438Z,100824.00
2023-03-15T11:36:20.102Z,100800.00
2023-03-15T11:38:48.385Z,100792.00
2023-03-15T11:41:26.658Z,100803.00
2023-03-15T11:44:03.687Z,100808.00
2023-03-15T11:46:35.620Z,100806.00
2023-03-15T11:49:12.123Z,100797.00
2023-03-15T11:51:40.867Z,100780.00
2023-03-15T11:54:14.644Z,100769.00
2023-03-15T11:56:58.955Z,100800.00
2023-03-15T11:59:30.018Z,100802.00
2023-03-15T12:02:01.003Z,100780.00
2023-03-15T12:04:45.003Z,100804.00
2023-03-15T12:07:40.759Z,100784.00
2023-03-15T12:10:46.809Z,100812.00
2023-03-15T12:13:25.950Z,100805.00
2023-03-15T12:15:54.387Z,100805.00
2023-03-15T12:18:27.875Z,100814.00
2023-03-15T12:21:15.976Z,100817.00
2023-03-15T12:23:50.333Z,100831.00
2023-03-15T12:26:26.148Z,100838.00
2023-03-15T12:29:06.770Z,100848.00
2023-03-15T12:31:59.663Z,100844.00
2023-03-15T12:34:38.278Z,100846.00
2023-03-15T12:37:08.778Z,100854.00
2023-03-15T12:39:48.805Z,100867.00
2023-03-15T12:42:54.248Z,100879.00
2023-03-15T12:45:45.652Z,100900.00
2023-03-15T12:48:22.741Z,100931.00
2023-03-15T12:50:53.745Z,100935.00
2023-03-15T12:53:28.720Z,100936.00
2023-03-15T12:56:07.982Z,100950.00
2023-03-15T12:58:38.364Z,100946.00
2023-03-15T13:01:09.041Z,100959.00
2023-03-15T13:03:37.498Z,100964.00
2023-03-15T13:06:12.959Z,100948.00
2023-03-15T13:08:49.054Z,100974.00
2023-03-15T13:11:25.755Z,100987.00
2023-03-15T13:14:07.087Z,100985.00
2023-03-15T13:16:40.121Z,100972.00
2023-03-15T13:19:18.515Z,100972.00
2023-03-15T13:22:12.974Z,100997.00
2023-03-15T13:24:48.365Z,100982.00
2023-03-15T13:27:29.330Z,100981.00
2023-03-15T13:29:59.302Z,100957.00
2023-03-15T13:32:28.496Z,100985.00
2023-03-15T13:34:58.282Z,100974.00
2023-03-15T13:37:29.038Z,100973.00
2023-03-15T13:40:00.748Z,100971.00
2023-03-15T13:42:29.514Z,100939.00
2023-03-15T13:45:11.287Z,100974.00
2023-03-15T13:47:41.430Z,100984.00
2023-03-15T13:50:13.970Z,100972.00
2023-03-15T13:52:42.773Z,100981.00
2023-03-15T13:55:13.514Z,100983.00
2023-03-15T13:57:41.781Z,100986.00
2023-03-15T14:00:12.501Z,100973.00
2023-03-15T14:02:49.446Z,100978.00
2023-03-15T14:05:19.602Z,100976.00
2023-03-15T14:07:49.659Z,100962.00
2023-03-15T14:10:29.032Z,100983.00
2023-03-15T14:12:57.852Z,100985.00
2023-03-15T14:15:28.331Z,100963.00
2023-03-15T14:18:02.457Z,100959.00
2023-03-15T14:20:33.691Z,100982.00
2023-03-15T14:23:03.272Z,100978.00
2023-03-15T14:25:36.035Z,100973.00
2023-03-15T14:28:05.980Z,100991.00
2023-03-15T14:30:37.036Z,100985.00
2023-03-15T14:33:08.849Z,100977.00
2023-03-15T14:35:43.888Z,100979.00
2023-03-15T14:38:18.877Z,100963.00
2023-03-15T14:40:47.362Z,100962.00
2023-03-15T14:43:15.166Z,100982.00
2023-03-15T14:45:45.182Z,100972.00
2023-03-15T14:48:17.675Z,100971.00
2023-03-15T14:50:46.873Z,100962.00
2023-03-15T14:53:23.448Z,100958.00
2023-03-15T14:55:51.416Z,100981.00
2023-03-15T14:58:20.820Z,100991.00
2023-03-15T15:00:52.479Z,100995.00
2023-03-15T15:03:31.223Z,100981.00
2023-03-15T15:05:59.657Z,100966.00
2023-03-15T15:08:28.221Z,100994.00
2023-03-15T15:10:57.850Z,100984.00
2023-03-15T15:13:28.242Z,100986.00
2023-03-15T15:15:58.969Z,100986.00
2023-03-15T15:18:30.099Z,100966.00
2023-03-15T15:21:00.880Z,100990.00
2023-03-15T15:23:30.712Z,100963.00
2023-03-15T15:26:01.225Z,100987.00
2023-03-15T15:28:35.939Z,100983.00
2023-03-15T15:31:05.997Z,100977.00
2023-03-15T15:33:35.306Z,100994.00
2023-03-15T15:36:04.992Z,100984.00
2023-03-15T15:38:38.403Z,100975.00
2023-03-15T15:41:07.675Z,100998.00
2023-03-15T15:43:35.530Z,100999.00
2023-03-15T15:46:03.493Z,100968.00
2023-03-15T15:48:31.347Z,100972.00
2023-03-15T15:51:00.982Z,101000.00
2023-03-15T15:53:33.685Z,100984.00
2023-03-15T15:56:01.525Z,100972.00
2023-03-15T15:58:29.512Z,101001.00
2023-03-15T16:00:57.292Z,101007.00
2023-03-15T16:03:26.017Z,100988.00
2023-03-15T16:05:53.872Z,101012.00
2023-03-15T16:08:25.577Z,100993.00
2023-03-15T16:10:53.506Z,101012.00
2023-03-15T16:13:21.265Z,101017.00
2023-03-15T16:15:49.056Z,101017.00
2023-03-15T16:18:16.821Z,101021.00
2023-03-15T16:20:44.699Z,101024.00
2023-03-15T16:23:20.445Z,101021.00
2023-03-15T16:25:52.069Z,100985.00
2023-03-15T16:28:20.127Z,101042.00
2023-03-15T16:30:48.237Z,101031.00
2023-03-15T16:33:19.030Z,101030.00
2023-03-15T16:35:49.936Z,101054.00
2023-03-15T16:38:24.090Z,101041.00
2023-03-15T16:40:54.177Z,101044.00
2023-03-15T16:43:22.165Z,101056.00
2023-03-15T16:45:50.660Z,101055.00
2023-03-15T16:48:18.543Z,101044.00
2023-03-15T16:50:48.181Z,101062.00
2023-03-15T16:53:16.482Z,101058.00
2023-03-15T16:55:44.391Z,101065.00
2023-03-15T16:58:18.292Z,101068.00
2023-03-15T17:00:48.136Z,101070.00
2023-03-15T17:03:17.619Z,101067.00
2023-03-15T17:05:47.527Z,101042.00
2023-03-15T17:08:20.011Z,101061.00
2023-03-15T17:10:49.363Z,101077.00
2023-03-15T17:13:24.524Z,101074.00
2023-03-15T17:15:52.589Z,101061.00
2023-03-15T17:18:21.912Z,101083.00
2023-03-15T17:20:50.985Z,101064.00
2023-03-15T17:23:20.958Z,101067.00
2023-03-15T17:25:49.972Z,101061.00
2023-03-15T17:28:19.151Z,101080.00
2023-03-15T17:30:48.483Z,101078.00
2023-03-15T17:33:17.620Z,101080.00
2023-03-15T17:35:50.076Z,101080.00
2023-03-15T17:38:21.780Z,101078.00
2023-03-15T17:40:49.942Z,101105.00
2023-03-15T17:43:19.199Z,101109.00
2023-03-15T17:45:47.555Z,101099.00
2023-03-15T17:48:15.510Z,101115.00
2023-03-15T17:50:45.119Z,101111.00
2023-03-15T17:53:17.972Z,101121.00
2023-03-15T17:55:47.730Z,101126.00
2023-03-15T17:58:20.787Z,101126.00
2023-03-15T18:00:49.711Z,101123.00
2023-03-15T18:03:18.267Z,101115.00
2023-03-15T18:05:47.361Z,101125.00
2023-03-15T18:08:18.211Z,101124.00
2023-03-15T18:10:47.262Z,101127.00
2023-03-15T18:13:18.202Z,101126.00
2023-03-15T18:15:49.364Z,101131.00
2023-03-15T18:18:17.356Z,101126.00
2023-03-15T18:20:46.206Z,101132.00
2023-03-15T18:23:15.198Z,101138.00
2023-03-15T18:25:43.828Z,101133.00
2023-03-15T18:28:11.974Z,101144.00
2023-03-15T18:30:40.727Z,101148.00
2023-03-15T18:33:12.399Z,101128.00
2023-03-15T18:35:40.201Z,101134.00
2023-03-15T18:38:07.997Z,101138.00
2023-03-15T18:40:35.789Z,101145.00
2023-03-15T18:43:05.419Z,101148.00
2023-03-15T18:45:42.972Z,101149.00
2023-03-15T18:51:12.174Z,101145.00
2023-03-15T18:53:40.896Z,101141.00
2023-03-15T18:56:13.756Z,101125.00
2023-03-15T18:58:41.493Z,101137.00
2023-03-15T19:01:10.079Z,101141.00
2023-03-15T19:03:39.256Z,101142.00
2023-03-15T19:06:08.943Z,101151.00
2023-03-15T19:08:36.944Z,101138.00
2023-03-15T19:11:06.063Z,101142.00
2023-03-15T19:13:33.854Z,101148.00
2023-03-15T19:16:01.773Z,101142.00
2023-03-15T19:18:32.292Z,101150.00
2023-03-15T19:21:02.505Z,101159.00
2023-03-15T19:23:30.306Z,101155.00
2023-03-15T19:25:58.111Z,101162.00
2023-03-15T19:28:26.074Z,101155.00
2023-03-15T19:30:53.976Z,101121.00
2023-03-15T19:33:21.822Z,101162.00
2023-03-15T19:35:49.863Z,101158.00
2023-03-15T19:38:19.971Z,101164.00
2023-03-15T19:40:47.737Z,101159.00
2023-03-15T19:43:16.086Z,101164.00
2023-03-15T19:45:44.145Z,101166.00
2023-03-15T19:48:11.899Z,101162.00
2023-03-15T19:50:39.707Z,101164.00
2023-03-15T19:53:07.584Z,101145.00
2023-03-15T19:55:36.787Z,101173.00
2023-03-15T19:58:05.195Z,101176.00
2023-03-15T20:00:33.029Z,101175.00
2023-03-15T20:03:00.981Z,101184.00
2023-03-15T20:05:28.856Z,101183.00
2023-03-15T20:07:56.577Z,101172.00
2023-03-15T20:10:24.601Z,101168.00
2023-03-15T20:12:58.905Z,101172.00
2023-03-15T20:15:29.304Z,101184.00
2023-03-15T20:17:57.318Z,101198.00
2023-03-15T20:20:25.303Z,101191.00
2023-03-15T20:22:53.266Z,101196.00
2023-03-15T20:25:21.815Z,101200.00
2023-03-15T20:27:49.825Z,101184.00
2023-03-15T20:30:19.956Z,101169.00
2023-03-15T20:32:48.147Z,101208.00
2023-03-15T20:35:16.228Z,101199.00
2023-03-15T20:37:44.068Z,101206.00
2023-03-15T20:40:14.382Z,101202.00
2023-03-15T20:42:42.277Z,101202.00
2023-03-15T20:45:12.330Z,101216.00
2023-03-15T20:47:42.971Z,101189.00
2023-03-15T20:50:13.088Z,101212.00
2023-03-15T20:52:42.565Z,101214.00
2023-03-15T20:55:11.211Z,101218.00
2023-03-15T20:57:41.254Z,101216.00
2023-03-15T21:00:12.487Z,101225.00
2023-03-15T21:02:41.782Z,101222.00
2023-03-15T21:05:10.211Z,101218.00
2023-03-15T21:07:38.131Z,101228.00
2023-03-15T21:10:07.122Z,101219.00
2023-03-15T21:12:35.005Z,101224.00
2023-03-15T21:15:03.799Z,101220.00
2023-03-15T21:17:31.604Z,101220.00
2023-03-15T21:20:01.017Z,101214.00
2023-03-15T21:22:29.149Z,101205.00
2023-03-15T21:24:56.957Z,101212.00
2023-03-15T21:27:26.296Z,101215.00
2023-03-15T21:29:54.595Z,101208.00
2023-03-15T21:32:22.901Z,101216.00
2023-03-15T21:34:50.797Z,101217.00
2023-03-15T21:37:20.375Z,101229.00
2023-03-15T21:39:48.218Z,101220.00
2023-03-15T21:42:16.078Z,101215.00
2023-03-15T21:44:43.896Z,101224.00
2023-03-15T21:47:11.623Z,101221.00
2023-03-15T21:49:44.581Z,101220.00
2023-03-15T21:52:12.533Z,101193.00
2023-03-15T21:54:42.070Z,101211.00
2023-03-15T21:57:10.103Z,101224.00
2023-03-15T21:59:38.122Z,101225.00
2023-03-15T22:02:08.068Z,101202.00
2023-03-15T22:04:36.099Z,101214.00
2023-03-15T22:07:04.079Z,101234.00
2023-03-15T22:09:32.091Z,101228.00
2023-03-15T22:12:01.492Z,101188.00
2023-03-15T22:14:29.460Z,101186.00
2023-03-15T22:16:57.408Z,101244.00
2023-03-15T22:19:25.425Z,101237.00
2023-03-15T22:21:53.440Z,101242.00
2023-03-15T22:24:21.327Z,101200.00
2023-03-15T22:26:50.504Z,101239.00
2023-03-15T22:29:20.353Z,101254.00
2023-03-15T22:31:48.538Z,101252.00
2023-03-15T22:34:16.814Z,101248.00
2023-03-15T22:36:44.725Z,101228.00
2023-03-15T22:39:12.948Z,101242.00
2023-03-15T22:41:40.856Z,101229.00
2023-03-15T22:44:08.745Z,101235.00
2023-03-15T22:46:38.323Z,101222.00
2023-03-15T22:49:06.341Z,101239.00
2023-03-15T22:51:34.784Z,101246.00
2023-03-15T22:54:03.296Z,101243.00
2023-03-15T22:56:31.494Z,101239.00
2023-03-15T22:58:59.559Z,101200.00
2023-03-15T23:01:27.549Z,101249.00
2023-03-15T23:03:58.037Z,101246.00
2023-03-15T23:06:26.157Z,101227.00
2023-03-15T23:08:54.213Z,101275.00
2023-03-15T23:11:22.398Z,101229.00
2023-03-15T23:13:50.437Z,101225.00
2023-03-15T23:16:19.028Z,101236.00
2023-03-15T23:18:49.220Z,101241.00
2023-03-15T23:21:18.607Z,101256.00
2023-03-15T23:23:46.645Z,101218.00
2023-03-15T23:26:16.718Z,101242.00
2023-03-15T23:28:44.671Z,101236.00
2023-03-15T23:31:12.494Z,101247.00
2023-03-15T23:33:40.308Z,101262.00
2023-03-15T23:36:08.941Z,101266.00
2023-03-15T23:38:38.327Z,101253.00
2023-03-15T23:41:07.011Z,101264.00
2023-03-15T23:43:35.038Z,101262.00
2023-03-15T23:46:04.802Z,101270.00
2023-03-15T23:48:35.263Z,101259.00
2023-03-15T23:51:04.344Z,101255.00
2023-03-15T23:53:32.747Z,101288.00
2023-03-15T23:56:02.564Z,101258.00
2023-03-15T23:58:30.635Z,101265.00
